Newcomerstown, OH (43832)

7:06 PM EST on February 14, 2016 (GMT -0500)
Heller Drive | | Change Station
CLOSE
Current Station
Personal Weather Station
Location: Newcomerstown, OH
Elevation: 792 ft
Nearby Weather Stations

Elev 792 ft 40.27 °N, 81.61 °W | Updated 17 seconds ago

Overcast
Overcast
19.6 °F
Feels Like 14 °F
N
4.0
Wind Variable Wind from NE
Gusts 8.0 mph

Today
High -- | Low -- °F
--% Chance of Precip.
Yesterday
High -- | Low -- °F
Precip. -- in
Pressure 30.35 in
Visibility 10.0 miles
Clouds Overcast 10000 ft
Windchill 14 °F
Dew Point 7 °F
Humidity 57%
Rainfall 0.00 in
Snow Depth Not available.
7:21 AM 6:00 PM
Waxing Crescent, 46% visible
METAR KPHD 142353Z AUTO 10006KT 10SM OVC100 M07/M17 A3029 RMK AO2 SLP276 T10721167 11072 21089 58012
Pressure 30.35 in
Visibility 10.0 miles
Clouds Overcast 10000 ft
Windchill 14 °F
Dew Point 7 °F
Humidity 57%
Rainfall 0.00 in
Snow Depth Not available.
7:21 AM 6:00 PM
Waxing Crescent, 46% visible
METAR KPHD 142353Z AUTO 10006KT 10SM OVC100 M07/M17 A3029 RMK AO2 SLP276 T10721167 11072 21089 58012

10-Day Weather Forecast

Almanac

Astronomy

Feb. 14, 2016 Rise Set
Actual Time
Civil Twilight
Nautical Twilight
Astronomical Twilight
Moon
Length of Visible Light
Length of Day
Tomorrow will be .
, % of the Moon is Illuminated

Today's Extremes

State Highs State Lows

Community

WunderPhotos

Upload Photos

1,892,937 photos uploaded!

WunderBlog® & News

Nearby

Air Quality

  Air Quality AQ Index Pollutant
Not available.

Snow Depth

Station Depth Elevation

Earthquake Activity

City Distance Mag. Time & Date
Minimum magnitude displayed is 2.5.

Coastal Water Temperatures

Place Temperature

Stations

Nearby Weather Stations

Station Location Temp. Windchill Dew Point Humidity Wind Precip. Elev Updated Type
                   

Watches & Warnings

There are currently no watches in effect.